Time;durP1;ratioP1;P1;durP2;ratioP2;P2;SDS_P1;SDS_P2;PMS_P1;PMS_P2;Temp;Humidity;BMP_temperature;BMP_pressure;BME280_temperature;BME280_humidity;BME280_pressure;Samples;Min_cycle;Max_cycle;Signal;HPM_P1;HPM_P2
2024/01/21 00:00:22;;;;;;;119.05;51.65;;;;;;;8.46;nan;99291.31;5092580;28;20458;-70
2024/01/21 00:03:12;;;;;;;140.95;52.53;;;;;;;8.44;nan;99283.56;5077908;28;20367;-70
2024/01/21 00:06:06;;;;;;;129.75;52.83;;;;;;;8.50;nan;99285.53;5092044;28;20043;-70
2024/01/21 00:08:58;;;;;;;129.90;53.38;;;;;;;8.30;nan;99262.28;5094302;28;20121;-70
2024/01/21 00:11:48;;;;;;;129.98;53.92;;;;;;;8.53;nan;99284.41;5094533;28;20039;-70
2024/01/21 00:14:37;;;;;;;134.30;53.45;;;;;;;8.29;nan;99279.94;5097841;28;20071;-70
2024/01/21 00:17:27;;;;;;;126.75;53.75;;;;;;;8.36;nan;99275.66;5095362;28;20043;-71
2024/01/21 00:20:17;;;;;;;134.10;56.25;;;;;;;8.37;nan;99281.72;5091880;28;20043;-70
2024/01/21 00:23:07;;;;;;;134.10;55.35;;;;;;;8.35;nan;99275.81;5093212;28;20039;-70
2024/01/21 00:25:58;;;;;;;147.32;59.20;;;;;;;8.26;nan;99274.13;5085734;28;20059;-71
2024/01/21 00:28:48;;;;;;;159.18;58.55;;;;;;;8.37;nan;99292.28;5093047;28;20054;-71
2024/01/21 00:31:38;;;;;;;142.15;58.90;;;;;;;8.39;nan;99283.25;5079933;28;20051;-71
2024/01/21 00:34:28;;;;;;;152.23;61.63;;;;;;;8.41;nan;99281.25;5075968;28;20044;-70
2024/01/21 00:37:17;;;;;;;146.98;57.53;;;;;;;8.37;nan;99290.47;5100662;28;20053;-70
2024/01/21 00:40:09;;;;;;;151.95;59.55;;;;;;;8.36;nan;99288.84;5085184;28;20071;-71
2024/01/21 00:42:59;;;;;;;151.18;57.83;;;;;;;8.41;nan;99288.34;5083952;28;20047;-71
2024/01/21 00:45:51;;;;;;;144.18;59.65;;;;;;;8.34;nan;99292.63;5092575;28;20063;-71
2024/01/21 00:48:41;;;;;;;140.82;58.03;;;;;;;8.28;nan;99291.44;5105185;28;20044;-75
2024/01/21 00:51:31;;;;;;;161.88;60.63;;;;;;;8.33;nan;99289.16;5104502;28;20031;-75
2024/01/21 00:54:21;;;;;;;151.05;58.13;;;;;;;8.41;nan;99286.53;5080984;28;20044;-75
2024/01/21 00:57:11;;;;;;;146.77;59.05;;;;;;;8.38;nan;99297.41;5090447;28;20065;-75
2024/01/21 01:00:01;;;;;;;165.18;60.80;;;;;;;8.41;nan;99307.63;5088662;28;20122;-75
2024/01/21 01:02:52;;;;;;;175.15;63.47;;;;;;;8.30;nan;99300.06;5086754;28;20051;-76
2024/01/21 01:05:42;;;;;;;164.68;61.53;;;;;;;8.26;nan;99305.78;5102468;28;20137;-71
2024/01/21 01:08:32;;;;;;;160.90;61.13;;;;;;;8.32;nan;99300.69;5100028;28;20555;-71
2024/01/21 01:11:22;;;;;;;169.00;65.88;;;;;;;8.24;nan;99299.84;5103722;28;20050;-71
2024/01/21 01:14:12;;;;;;;167.40;62.92;;;;;;;8.18;nan;99296.06;5090576;28;20035;-71
2024/01/21 01:17:01;;;;;;;161.10;64.55;;;;;;;8.26;nan;99289.97;5085567;28;20043;-71
2024/01/21 01:19:51;;;;;;;165.80;64.43;;;;;;;8.33;nan;99304.16;5084480;28;20036;-71
2024/01/21 01:22:41;;;;;;;176.77;66.72;;;;;;;8.28;nan;99301.97;5084843;28;20036;-70
2024/01/21 01:25:31;;;;;;;189.18;66.07;;;;;;;8.26;nan;99303.97;5056931;28;20050;-71
2024/01/21 01:28:21;;;;;;;168.30;61.30;;;;;;;8.58;nan;99311.13;5095480;28;20032;-70
2024/01/21 01:31:20;;;;;;;168.90;64.80;;;;;;;8.35;nan;99310.13;5106093;28;20040;-71
2024/01/21 01:34:11;;;;;;;169.88;63.22;;;;;;;8.38;nan;99310.63;5090279;28;20464;-71
2024/01/21 01:37:01;;;;;;;167.88;63.70;;;;;;;8.29;nan;99326.56;5084778;28;20052;-70
2024/01/21 01:39:50;;;;;;;177.10;65.43;;;;;;;8.29;nan;99324.78;5096997;28;20105;-71
2024/01/21 01:42:40;;;;;;;172.93;64.63;;;;;;;8.32;nan;99324.44;5103121;28;20040;-71
2024/01/21 01:45:30;;;;;;;173.32;65.80;;;;;;;8.33;nan;99330.56;5104017;28;20035;-71
2024/01/21 01:48:22;;;;;;;177.10;67.18;;;;;;;8.30;nan;99339.63;5104006;28;20110;-73
2024/01/21 01:51:13;;;;;;;168.95;65.00;;;;;;;8.21;nan;99350.28;5078592;28;20122;-72
2024/01/21 01:54:05;;;;;;;189.75;70.55;;;;;;;8.13;nan;99346.66;5084593;28;20048;-71
2024/01/21 01:56:54;;;;;;;196.68;69.63;;;;;;;8.08;nan;99348.13;5103564;28;20055;-72
2024/01/21 01:59:44;;;;;;;172.73;65.35;;;;;;;8.20;nan;99357.38;5100846;28;20067;-72
2024/01/21 02:02:35;;;;;;;188.52;71.07;;;;;;;8.22;nan;99362.50;5097732;28;20040;-72
2024/01/21 02:05:25;;;;;;;180.80;73.40;;;;;;;8.34;nan;99370.00;5070393;28;20076;-72
2024/01/21 02:08:16;;;;;;;191.55;71.85;;;;;;;8.28;nan;99356.56;5071227;28;20040;-72
2024/01/21 02:11:06;;;;;;;208.85;76.53;;;;;;;8.17;nan;99364.81;5098694;28;20044;-72
2024/01/21 02:13:56;;;;;;;195.40;75.75;;;;;;;8.08;nan;99363.97;5098333;28;20055;-72
2024/01/21 02:16:48;;;;;;;204.27;76.30;;;;;;;8.12;nan;99358.19;5082745;28;20040;-71
2024/01/21 02:19:39;;;;;;;186.43;69.47;;;;;;;8.27;nan;99365.50;5064860;28;20056;-71
2024/01/21 02:22:31;;;;;;;197.32;73.15;;;;;;;8.28;nan;99372.41;5068242;28;20070;-71
2024/01/21 02:25:24;;;;;;;199.18;73.57;;;;;;;8.23;nan;99369.44;5068014;28;20713;-71
2024/01/21 02:28:15;;;;;;;194.15;72.20;;;;;;;8.41;nan;99364.88;5084334;28;20040;-71
2024/01/21 02:31:05;;;;;;;184.98;71.55;;;;;;;8.34;nan;99374.44;5092324;28;20047;-71
2024/01/21 02:33:55;;;;;;;198.07;70.45;;;;;;;8.25;nan;99381.47;5079757;28;20035;-71
2024/01/21 02:36:48;;;;;;;194.90;73.83;;;;;;;8.19;nan;99382.09;5107272;28;20066;-72
2024/01/21 02:39:46;;;;;;;191.75;71.30;;;;;;;8.27;nan;99386.59;5091760;28;20082;-72
2024/01/21 02:42:40;;;;;;;185.70;72.00;;;;;;;8.21;nan;99388.06;5091123;28;20181;-72
2024/01/21 02:45:30;;;;;;;169.93;68.00;;;;;;;8.20;nan;99393.50;5098274;28;20048;-72
2024/01/21 02:48:19;;;;;;;192.52;70.63;;;;;;;8.25;nan;99394.66;5092574;28;20048;-72
2024/01/21 02:51:14;;;;;;;176.68;70.93;;;;;;;8.28;nan;99402.25;5075661;28;20044;-71
2024/01/21 02:54:04;;;;;;;200.23;73.43;;;;;;;8.24;nan;99405.38;5086962;28;20367;-72
2024/01/21 02:56:57;;;;;;;194.98;71.80;;;;;;;8.28;nan;99406.72;5090833;28;20107;-72
2024/01/21 02:59:47;;;;;;;198.98;72.60;;;;;;;8.33;nan;99407.91;5103217;28;20108;-72
2024/01/21 03:02:37;;;;;;;195.82;73.72;;;;;;;8.33;nan;99420.28;5097423;28;20036;-72
2024/01/21 03:05:27;;;;;;;219.13;78.15;;;;;;;8.39;nan;99419.66;5083041;28;20482;-72
2024/01/21 03:08:17;;;;;;;206.63;78.15;;;;;;;8.46;nan;99432.03;5077302;28;20476;-72
2024/01/21 03:11:07;;;;;;;231.15;77.38;;;;;;;8.38;nan;99433.81;5096919;28;20036;-72
2024/01/21 03:14:00;;;;;;;222.20;78.97;;;;;;;8.37;nan;99432.16;5084817;28;20051;-72
2024/01/21 03:16:51;;;;;;;202.13;72.55;;;;;;;8.41;nan;99433.50;5082122;28;20071;-71
2024/01/21 03:19:44;;;;;;;218.82;77.15;;;;;;;8.54;nan;99442.59;5091755;28;20048;-72
2024/01/21 03:22:40;;;;;;;222.23;76.20;;;;;;;8.41;nan;99436.13;5097107;28;20036;-72
2024/01/21 03:25:30;;;;;;;223.52;74.13;;;;;;;8.46;nan;99441.75;5081610;28;20059;-72
2024/01/21 03:28:22;;;;;;;219.00;76.10;;;;;;;8.54;nan;99436.53;5096696;28;20082;-71
2024/01/21 03:31:19;;;;;;;228.48;80.95;;;;;;;8.46;nan;99445.22;5060812;28;20072;-72
2024/01/21 03:34:20;;;;;;;227.23;77.25;;;;;;;8.44;nan;99451.66;5080474;28;20044;-72
2024/01/21 03:37:20;;;;;;;217.38;78.90;;;;;;;8.44;nan;99452.50;5085338;28;20055;-72
2024/01/21 03:40:10;;;;;;;228.05;76.90;;;;;;;8.44;nan;99455.13;5084978;28;20082;-72
2024/01/21 03:43:01;;;;;;;248.82;79.45;;;;;;;8.55;nan;99468.03;5084873;28;20055;-72
2024/01/21 03:45:58;;;;;;;228.07;78.40;;;;;;;8.61;nan;99471.84;5085086;28;20486;-71
2024/01/21 03:48:48;;;;;;;230.23;76.00;;;;;;;8.55;nan;99469.84;5071433;28;20050;-72
2024/01/21 03:51:43;;;;;;;216.52;75.35;;;;;;;8.62;nan;99470.88;5086163;28;20600;-72
2024/01/21 03:54:35;;;;;;;221.20;76.15;;;;;;;8.64;nan;99476.78;5087831;28;20079;-72
2024/01/21 03:57:25;;;;;;;206.77;75.18;;;;;;;8.57;nan;99479.28;5085595;28;20052;-72
2024/01/21 04:00:17;;;;;;;224.93;74.53;;;;;;;8.59;nan;99484.38;5047014;28;20798;-72
2024/01/21 04:03:10;;;;;;;;;;;;;;;8.43;nan;99479.88;5083697;28;20119;-72
2024/01/21 04:06:09;;;;;;;229.00;73.20;;;;;;;8.52;nan;99483.38;5077171;28;20025;-72
2024/01/21 04:09:03;;;;;;;237.88;79.38;;;;;;;8.57;nan;99489.00;5064443;28;20044;-72
2024/01/21 04:11:57;;;;;;;240.73;80.90;;;;;;;8.60;nan;99475.47;5054156;28;20124;-72
2024/01/21 04:14:50;;;;;;;246.97;79.10;;;;;;;8.79;nan;99485.75;5083016;28;20040;-72
2024/01/21 04:17:40;;;;;;;234.50;79.65;;;;;;;8.81;nan;99486.41;5063890;28;20273;-71
2024/01/21 04:20:32;;;;;;;241.13;79.55;;;;;;;8.66;nan;99484.56;5065007;28;20040;-72
2024/01/21 04:23:22;;;;;;;240.40;81.22;;;;;;;8.67;nan;99484.41;5081536;28;20645;-72
2024/01/21 04:26:17;;;;;;;263.17;82.00;;;;;;;8.76;nan;99488.69;5083682;28;20116;-72
2024/01/21 04:29:08;;;;;;;249.48;83.63;;;;;;;8.73;nan;99488.19;5069937;28;20048;-73
2024/01/21 04:32:01;;;;;;;259.38;81.43;;;;;;;8.75;nan;99478.31;5077295;28;20079;-72
2024/01/21 04:34:51;;;;;;;241.43;80.43;;;;;;;8.82;nan;99480.13;5101571;28;20105;-72
2024/01/21 04:37:44;;;;;;;256.73;78.90;;;;;;;8.83;nan;99487.09;5096053;28;20142;-72
2024/01/21 04:40:39;;;;;;;244.23;80.90;;;;;;;8.73;nan;99480.28;5067165;28;20079;-72
2024/01/21 04:43:32;;;;;;;237.15;76.88;;;;;;;8.91;nan;99486.25;5079596;28;20047;-73
2024/01/21 04:46:25;;;;;;;239.53;81.13;;;;;;;9.18;nan;99478.03;5084721;28;20048;-72
2024/01/21 04:49:19;;;;;;;233.02;76.68;;;;;;;9.02;nan;99475.41;5103453;28;20670;-72
2024/01/21 04:52:09;;;;;;;238.88;77.35;;;;;;;8.99;nan;99479.19;5096878;28;20051;-72
2024/01/21 04:55:00;;;;;;;236.05;76.20;;;;;;;9.02;nan;99476.22;5087488;28;20056;-72
2024/01/21 04:57:50;;;;;;;230.32;75.63;;;;;;;9.02;nan;99478.88;5073119;28;21082;-72
2024/01/21 05:00:41;;;;;;;230.40;75.90;;;;;;;8.93;nan;99471.94;5072456;28;20044;-72
2024/01/21 05:03:35;;;;;;;246.70;77.93;;;;;;;8.91;nan;99479.16;5072191;28;20047;-72
2024/01/21 05:06:26;;;;;;;224.10;76.88;;;;;;;8.93;nan;99471.09;5073340;28;20058;-71
2024/01/21 05:09:16;;;;;;;204.05;70.10;;;;;;;8.93;nan;99465.81;5095477;28;20043;-71
2024/01/21 05:12:22;;;;;;;215.35;71.10;;;;;;;8.96;nan;99466.31;5092747;28;20044;-72
2024/01/21 05:15:16;;;;;;;198.40;71.78;;;;;;;9.03;nan;99471.75;5091888;28;20138;-71
2024/01/21 05:18:07;;;;;;;218.00;71.60;;;;;;;8.97;nan;99470.59;5080732;28;20048;-66
2024/01/21 05:20:57;;;;;;;220.00;72.18;;;;;;;8.81;nan;99470.56;5094851;28;20051;-66
2024/01/21 05:23:53;;;;;;;229.97;76.27;;;;;;;8.89;nan;99464.50;5090803;28;20063;-65
2024/01/21 05:26:46;;;;;;;;;;;;;;;8.97;nan;99470.59;5091501;28;20055;-66
2024/01/21 05:29:41;;;;;;;208.38;69.43;;;;;;;8.94;nan;99472.72;5081634;28;20042;-66
2024/01/21 05:32:35;;;;;;;217.90;69.45;;;;;;;8.94;nan;99470.06;5096377;28;20083;-66
2024/01/21 05:35:25;;;;;;;207.27;68.80;;;;;;;8.87;nan;99466.44;5095545;28;20055;-66
2024/01/21 05:38:16;;;;;;;208.88;72.70;;;;;;;8.75;nan;99452.75;5080769;28;20039;-65
2024/01/21 05:41:17;;;;;;;207.50;70.60;;;;;;;8.93;nan;99463.16;5089706;28;20052;-66
2024/01/21 05:44:08;;;;;;;213.48;70.43;;;;;;;8.98;nan;99455.59;5083790;28;20048;-66
2024/01/21 05:46:59;;;;;;;207.00;69.78;;;;;;;9.04;nan;99457.56;5093060;28;20601;-66
2024/01/21 05:49:50;;;;;;;213.68;71.35;;;;;;;9.13;nan;99453.94;5095442;28;20044;-67
2024/01/21 05:52:41;;;;;;;217.50;74.15;;;;;;;9.02;nan;99454.25;5075105;28;20186;-66
2024/01/21 05:55:35;;;;;;;;;;;;;;;9.17;nan;99449.13;5092899;28;20120;-66
2024/01/21 05:58:24;;;;;;;229.85;73.82;;;;;;;9.25;nan;99452.59;5096977;28;20393;-66
2024/01/21 06:01:14;;;;;;;218.77;75.47;;;;;;;9.20;nan;99430.31;5084284;28;20044;-66
2024/01/21 06:04:06;;;;;;;231.80;81.28;;;;;;;9.12;nan;99439.06;5094568;28;20047;-66
2024/01/21 06:06:59;;;;;;;238.90;81.93;;;;;;;9.28;nan;99431.13;5093578;28;20076;-66
2024/01/21 06:09:49;;;;;;;242.00;80.22;;;;;;;9.26;nan;99419.06;5080824;28;20044;-66
2024/01/21 06:12:39;;;;;;;257.15;80.97;;;;;;;9.23;nan;99424.69;5084669;28;20375;-66
2024/01/21 06:15:32;;;;;;;245.55;81.05;;;;;;;9.31;nan;99416.75;5106627;28;20040;-66
2024/01/21 06:18:23;;;;;;;253.20;82.95;;;;;;;9.31;nan;99416.75;5105787;28;20821;-66
2024/01/21 06:21:16;;;;;;;225.07;79.47;;;;;;;9.42;nan;99408.50;5095634;28;20040;-65
2024/01/21 06:24:06;;;;;;;252.25;83.07;;;;;;;9.41;nan;99407.66;5097410;28;20040;-67
2024/01/21 06:26:53;;;;;;;231.93;82.43;;;;;;;9.48;nan;99394.59;5093133;28;20044;-68
2024/01/21 06:29:23;;;;;;;256.05;82.60;;;;;;;9.44;nan;99391.47;5088851;28;20048;-69
2024/01/21 06:31:56;;;;;;;272.75;84.53;;;;;;;9.45;nan;99387.00;5074503;28;20156;-69
2024/01/21 06:34:29;;;;;;;250.70;86.18;;;;;;;9.26;nan;99382.91;5062213;28;20052;-69
2024/01/21 06:37:02;;;;;;;;;;;;;;;9.30;nan;99380.72;5077187;28;20458;-69
2024/01/21 06:39:31;;;;;;;249.40;82.50;;;;;;;9.36;nan;99378.25;5079701;28;20140;-68
2024/01/21 06:42:02;;;;;;;247.05;83.82;;;;;;;9.37;nan;99368.50;5079807;28;20052;-68
2024/01/21 06:44:32;;;;;;;254.98;85.80;;;;;;;9.52;nan;99372.09;5084446;28;20143;-67
2024/01/21 06:47:02;;;;;;;255.88;85.68;;;;;;;9.54;nan;99382.50;5049907;28;20048;-69
2024/01/21 06:49:37;;;;;;;237.98;84.28;;;;;;;9.56;nan;99376.06;5073148;28;20063;-67
2024/01/21 06:52:11;;;;;;;244.70;83.00;;;;;;;9.57;nan;99375.06;5060041;28;20040;-67
2024/01/21 06:54:44;;;;;;;247.00;84.20;;;;;;;9.50;nan;99383.84;5058905;28;20048;-67
2024/01/21 06:57:14;;;;;;;250.88;90.15;;;;;;;9.63;nan;99379.69;5058372;28;20420;-67
2024/01/21 06:59:51;;;;;;;226.20;76.38;;;;;;;9.36;nan;99372.16;5068807;28;20051;-69
2024/01/21 07:02:21;;;;;;;223.18;77.85;;;;;;;9.51;nan;99369.66;5076315;28;20051;-67
2024/01/21 07:04:50;;;;;;;227.35;76.13;;;;;;;9.63;nan;99363.81;5059148;28;20043;-66
2024/01/21 07:07:22;;;;;;;203.05;70.70;;;;;;;9.64;nan;99369.94;5075441;28;20125;-67
2024/01/21 07:09:52;;;;;;;193.48;69.70;;;;;;;9.76;nan;99369.41;5043538;28;20154;-68
2024/01/21 07:12:21;;;;;;;174.68;66.05;;;;;;;9.71;nan;99360.31;5056780;28;20540;-67
2024/01/21 07:14:54;;;;;;;185.15;70.00;;;;;;;9.75;nan;99366.91;5053529;28;20348;-67
2024/01/21 07:17:23;;;;;;;187.68;67.32;;;;;;;9.79;nan;99358.47;5055986;28;20041;-65
2024/01/21 07:19:55;;;;;;;183.07;67.80;;;;;;;9.74;nan;99365.25;5072952;28;20052;-67
2024/01/21 07:22:27;;;;;;;198.52;72.75;;;;;;;9.84;nan;99356.13;5076679;28;20043;-66
2024/01/21 07:24:59;;;;;;;;;;;;;;;9.60;nan;99355.41;5060211;28;20052;-62
2024/01/21 07:27:34;;;;;;;216.57;73.45;;;;;;;9.86;nan;99348.03;5081009;28;19935;-67
2024/01/21 07:30:06;;;;;;;232.98;78.72;;;;;;;9.81;nan;99340.63;5087283;28;20108;-68
2024/01/21 07:32:39;;;;;;;226.32;81.18;;;;;;;9.75;nan;99340.47;5060587;28;20044;-66
2024/01/21 07:35:09;;;;;;;240.45;82.38;;;;;;;9.74;nan;99337.00;5096842;28;20146;-66
2024/01/21 07:37:41;;;;;;;225.30;79.57;;;;;;;9.80;nan;99338.97;5068958;28;20040;-67
2024/01/21 07:40:23;;;;;;;237.77;83.97;;;;;;;9.80;nan;99344.25;5080989;28;20048;-66
2024/01/21 07:42:52;;;;;;;248.40;83.07;;;;;;;9.81;nan;99339.78;5092352;28;20061;-65
2024/01/21 07:45:23;;;;;;;232.88;85.20;;;;;;;9.70;nan;99333.03;5095645;28;20062;-65
2024/01/21 07:47:58;;;;;;;268.48;86.50;;;;;;;9.86;nan;99342.75;5091622;28;20854;-66
2024/01/21 07:50:34;;;;;;;272.08;91.15;;;;;;;9.81;nan;99337.13;5097710;28;20521;-65
2024/01/21 07:53:05;;;;;;;246.52;85.13;;;;;;;9.73;nan;99339.81;5095752;28;20546;-66
2024/01/21 07:55:40;;;;;;;260.27;89.20;;;;;;;9.82;nan;99331.66;5076588;28;20138;-73
2024/01/21 07:58:15;;;;;;;261.52;88.32;;;;;;;9.83;nan;99328.03;5057927;28;20058;-69
2024/01/21 08:00:51;;;;;;;259.45;89.55;;;;;;;10.05;nan;99320.31;5094075;28;20055;-70
2024/01/21 08:03:24;;;;;;;259.42;85.63;;;;;;;10.00;nan;99314.72;5080725;28;20054;-67
2024/01/21 08:05:54;;;;;;;267.90;91.95;;;;;;;9.96;nan;99308.94;5079327;28;20054;-69
2024/01/21 08:08:26;;;;;;;244.93;84.67;;;;;;;10.15;nan;99313.84;5097911;28;20134;-73
2024/01/21 08:10:56;;;;;;;266.50;89.50;;;;;;;10.19;nan;99296.59;5095747;28;20434;-73
2024/01/21 08:13:30;;;;;;;249.60;85.03;;;;;;;10.21;nan;99304.38;5073913;28;20040;-70
2024/01/21 08:16:00;;;;;;;252.68;85.25;;;;;;;9.99;nan;99294.56;5095752;28;20047;-70
2024/01/21 08:18:30;;;;;;;232.93;81.60;;;;;;;10.00;nan;99290.91;5093503;28;20063;-69
2024/01/21 08:21:04;;;;;;;236.57;81.15;;;;;;;10.17;nan;99292.50;5090691;28;20526;-70
2024/01/21 08:23:40;;;;;;;232.48;79.18;;;;;;;10.18;nan;99288.81;5085170;28;20044;-69
2024/01/21 08:26:10;;;;;;;225.27;76.05;;;;;;;9.96;nan;99281.69;5095515;28;20042;-72
2024/01/21 08:28:41;;;;;;;246.05;82.30;;;;;;;9.96;nan;99276.41;5082721;28;20058;-69
2024/01/21 08:31:25;;;;;;;229.52;78.20;;;;;;;9.83;nan;99277.75;5087303;28;20454;-69
2024/01/21 08:33:56;;;;;;;230.70;80.93;;;;;;;9.95;nan;99280.84;5070754;28;20054;-68
2024/01/21 08:36:30;;;;;;;238.80;81.90;;;;;;;10.03;nan;99280.81;5079340;28;20054;-68
2024/01/21 08:39:05;;;;;;;229.32;79.43;;;;;;;9.96;nan;99277.19;5078322;28;20155;-69
2024/01/21 08:41:36;;;;;;;238.60;82.28;;;;;;;10.04;nan;99273.69;5074333;28;20047;-69
2024/01/21 08:44:08;;;;;;;224.27;80.80;;;;;;;9.95;nan;99269.44;5087942;28;20531;-69
2024/01/21 08:46:39;;;;;;;230.98;77.75;;;;;;;10.04;nan;99263.94;5089461;28;20332;-68
2024/01/21 08:49:11;;;;;;;226.18;78.90;;;;;;;10.03;nan;99267.56;5065191;28;20046;-68
2024/01/21 08:51:43;;;;;;;236.63;79.47;;;;;;;10.03;nan;99266.75;5092890;28;20102;-68
2024/01/21 08:54:15;;;;;;;223.55;78.53;;;;;;;9.90;nan;99260.22;5077497;28;20120;-68
2024/01/21 08:56:45;;;;;;;227.55;78.47;;;;;;;10.00;nan;99251.22;5071078;28;20071;-69
2024/01/21 08:59:15;;;;;;;224.68;77.32;;;;;;;9.96;nan;99257.88;5075890;28;20059;-69
2024/01/21 09:01:52;;;;;;;229.15;81.85;;;;;;;10.00;nan;99259.16;5093997;28;20498;-69
2024/01/21 09:04:22;;;;;;;221.25;75.40;;;;;;;9.97;nan;99255.03;5075428;28;20043;-68
2024/01/21 09:06:53;;;;;;;212.55;77.00;;;;;;;10.12;nan;99248.00;5075353;28;20054;-69
2024/01/21 09:09:23;;;;;;;211.00;75.05;;;;;;;10.13;nan;99239.06;5073580;28;20089;-71
2024/01/21 09:11:54;;;;;;;213.55;76.72;;;;;;;9.84;nan;99231.81;5092251;28;20543;-69
2024/01/21 09:14:28;;;;;;;210.52;76.47;;;;;;;9.91;nan;99235.38;5077895;28;20130;-68
2024/01/21 09:16:58;;;;;;;214.80;83.03;;;;;;;9.96;nan;99240.16;5042299;28;20551;-70
2024/01/21 09:19:31;;;;;;;191.27;71.68;;;;;;;9.88;nan;99227.81;5088706;28;20055;-71
2024/01/21 09:22:05;;;;;;;220.57;83.63;;;;;;;9.96;nan;99226.91;5078100;28;20130;-68
2024/01/21 09:24:37;;;;;;;191.30;74.40;;;;;;;10.00;nan;99228.22;5077132;28;20178;-66
2024/01/21 09:27:13;;;;;;;196.68;75.40;;;;;;;10.08;nan;99214.13;5089241;28;20097;-66
2024/01/21 09:29:44;;;;;;;206.60;74.30;;;;;;;10.14;nan;99221.34;5094500;28;20048;-70
2024/01/21 09:32:23;;;;;;;207.57;73.78;;;;;;;10.05;nan;99212.63;5055592;28;20047;-72
2024/01/21 09:34:53;;;;;;;;;;;;;;;10.01;nan;99206.06;5077771;28;20048;-68
2024/01/21 09:37:23;;;;;;;197.35;70.13;;;;;;;9.96;nan;99197.03;5094624;28;20583;-70
2024/01/21 09:39:56;;;;;;;196.57;73.22;;;;;;;10.07;nan;99209.81;5075127;28;20154;-69
2024/01/21 09:42:27;;;;;;;187.35;70.22;;;;;;;10.05;nan;99210.00;5085819;28;20132;-69
2024/01/21 09:44:58;;;;;;;187.88;72.25;;;;;;;10.13;nan;99209.13;5100157;28;20079;-69
2024/01/21 09:47:28;;;;;;;181.68;69.75;;;;;;;10.00;nan;99203.59;5093193;28;20470;-69
2024/01/21 09:49:59;;;;;;;162.93;64.95;;;;;;;9.94;nan;99199.84;5102552;28;20069;-69
2024/01/21 09:52:30;;;;;;;162.57;60.90;;;;;;;10.01;nan;99195.47;5102305;28;20051;-69
2024/01/21 09:55:01;;;;;;;161.95;63.40;;;;;;;10.30;nan;99194.78;5098202;28;20437;-69
2024/01/21 09:57:38;;;;;;;143.57;56.15;;;;;;;10.18;nan;99188.25;5064543;28;20351;-69
2024/01/21 10:00:17;;;;;;;137.18;56.00;;;;;;;9.98;nan;99195.84;5097889;28;20139;-68
2024/01/21 10:02:50;;;;;;;137.98;53.97;;;;;;;10.01;nan;99197.28;5077591;28;20070;-68
2024/01/21 10:05:20;;;;;;;128.85;50.55;;;;;;;9.87;nan;99199.69;5075413;28;20032;-68
2024/01/21 10:07:50;;;;;;;136.32;54.28;;;;;;;9.85;nan;99193.78;5077415;28;20127;-68
2024/01/21 10:10:20;;;;;;;126.00;52.58;;;;;;;9.94;nan;99181.31;5089320;28;20052;-68
2024/01/21 10:12:50;;;;;;;121.03;49.22;;;;;;;9.99;nan;99184.25;5097669;28;20143;-68
2024/01/21 10:15:19;;;;;;;128.88;51.05;;;;;;;10.06;nan;99197.59;5069400;28;20043;-68
2024/01/21 10:17:51;;;;;;;127.97;50.88;;;;;;;9.84;nan;99192.13;5095578;28;20054;-68
2024/01/21 10:20:21;;;;;;;126.97;51.55;;;;;;;9.83;nan;99195.75;5080505;28;20112;-68
2024/01/21 10:22:50;;;;;;;126.20;50.30;;;;;;;10.11;nan;99184.66;5098194;28;20155;-65
2024/01/21 10:25:21;;;;;;;141.75;52.58;;;;;;;9.96;nan;99183.78;5104623;28;20044;-66
2024/01/21 10:27:53;;;;;;;129.38;50.65;;;;;;;9.81;nan;99183.72;5073956;28;20134;-69
2024/01/21 10:30:24;;;;;;;132.35;50.58;;;;;;;9.77;nan;99183.25;5095196;28;20081;-69
2024/01/21 10:32:54;;;;;;;131.55;53.92;;;;;;;9.71;nan;99177.81;5095778;28;20063;-69
2024/01/21 10:35:26;;;;;;;138.50;52.08;;;;;;;9.74;nan;99180.94;5096389;28;20044;-69
2024/01/21 10:38:02;;;;;;;136.45;52.25;;;;;;;9.70;nan;99174.34;5099175;28;20130;-68
2024/01/21 10:40:32;;;;;;;137.75;53.42;;;;;;;9.78;nan;99165.56;5085630;28;20546;-68
2024/01/21 10:43:03;;;;;;;135.30;51.72;;;;;;;9.79;nan;99168.00;5078215;28;20044;-69
2024/01/21 10:45:34;;;;;;;129.40;53.22;;;;;;;10.01;nan;99173.47;5091297;28;20055;-69
2024/01/21 10:48:05;;;;;;;129.38;53.97;;;;;;;9.93;nan;99161.97;5094994;28;20066;-69
2024/01/21 10:50:40;;;;;;;135.07;50.88;;;;;;;10.00;nan;99163.91;5095022;28;20453;-69
2024/01/21 10:53:16;;;;;;;129.55;50.65;;;;;;;10.06;nan;99165.84;5092314;28;20051;-69
2024/01/21 10:55:45;;;;;;;117.60;47.38;;;;;;;10.38;nan;99160.28;5098078;28;20085;-68
2024/01/21 10:58:16;;;;;;;118.30;48.78;;;;;;;10.11;nan;99160.84;5098771;28;20126;-70
2024/01/21 11:00:47;;;;;;;118.57;47.67;;;;;;;10.13;nan;99158.84;5096534;28;20630;-68
2024/01/21 11:03:27;;;;;;;116.10;49.40;;;;;;;10.23;nan;99162.91;5077131;28;20840;-69
2024/01/21 11:06:07;;;;;;;120.00;49.15;;;;;;;9.93;nan;99169.91;5077116;28;20124;-67
2024/01/21 11:08:42;;;;;;;127.65;51.40;;;;;;;10.22;nan;99166.53;5092804;28;20787;-67
2024/01/21 11:11:12;;;;;;;129.40;47.90;;;;;;;9.99;nan;99168.38;5097507;28;20138;-67
2024/01/21 11:13:47;;;;;;;137.38;56.53;;;;;;;9.80;nan;99161.72;5074489;28;20075;-68
2024/01/21 11:16:29;;;;;;;138.20;60.38;;;;;;;9.83;nan;99164.00;5093871;28;20044;-67
2024/01/21 11:18:59;;;;;;;132.13;49.60;;;;;;;9.96;nan;99157.34;5099893;28;20117;-67
2024/01/21 11:21:30;;;;;;;132.57;52.75;;;;;;;10.03;nan;99159.09;5093032;28;20140;-68
2024/01/21 11:24:06;;;;;;;125.63;51.42;;;;;;;9.88;nan;99160.84;5094960;28;20104;-68
2024/01/21 11:26:37;;;;;;;127.30;51.30;;;;;;;9.77;nan;99154.16;5099789;28;20494;-68
2024/01/21 11:29:32;;;;;;;131.05;53.00;;;;;;;9.85;nan;99156.75;5069182;28;20056;-68
2024/01/21 11:32:04;;;;;;;125.85;51.72;;;;;;;9.89;nan;99152.75;5090741;28;20043;-68
2024/01/21 11:34:38;;;;;;;137.60;53.67;;;;;;;9.93;nan;99161.97;5096608;28;20036;-68
2024/01/21 11:37:16;;;;;;;135.52;51.88;;;;;;;9.87;nan;99160.00;5078704;28;20146;-68
2024/01/21 11:39:46;;;;;;;132.48;54.10;;;;;;;9.73;nan;99147.56;5080404;28;20822;-68
2024/01/21 11:42:16;;;;;;;137.02;54.42;;;;;;;9.76;nan;99163.09;5095068;28;20048;-67
2024/01/21 11:44:45;;;;;;;121.20;49.90;;;;;;;9.93;nan;99154.03;5077394;28;20215;-68
2024/01/21 11:47:15;;;;;;;125.18;51.47;;;;;;;9.86;nan;99150.47;5096669;28;20151;-68
2024/01/21 11:49:45;;;;;;;134.25;50.78;;;;;;;9.80;nan;99156.44;5078730;28;20055;-68
2024/01/21 11:52:14;;;;;;;135.05;52.83;;;;;;;9.78;nan;99163.72;5091464;28;20048;-68
2024/01/21 11:54:44;;;;;;;121.35;50.33;;;;;;;9.75;nan;99155.31;5074103;28;20452;-68
2024/01/21 11:57:13;;;;;;;124.32;52.97;;;;;;;9.78;nan;99161.06;5093045;28;20048;-68
2024/01/21 11:59:43;;;;;;;132.60;50.28;;;;;;;9.65;nan;99158.19;5076879;28;20380;-67
2024/01/21 12:02:13;;;;;;;123.65;50.47;;;;;;;9.57;nan;99165.34;5093231;28;20054;-68
2024/01/21 12:04:46;;;;;;;122.38;49.83;;;;;;;9.59;nan;99160.72;5077908;28;20062;-68
2024/01/21 12:07:18;;;;;;;130.98;51.65;;;;;;;9.43;nan;99173.03;5096037;28;20097;-67
2024/01/21 12:09:47;;;;;;;136.27;51.78;;;;;;;9.44;nan;99171.22;5092404;28;20043;-68
2024/01/21 12:12:17;;;;;;;120.47;52.15;;;;;;;9.80;nan;99169.66;5094156;28;20039;-69
2024/01/21 12:14:47;;;;;;;126.60;51.78;;;;;;;9.93;nan;99166.44;5095395;28;20957;-68
2024/01/21 12:17:20;;;;;;;136.68;50.92;;;;;;;9.66;nan;99173.06;5086275;28;20749;-68
2024/01/21 12:19:49;;;;;;;128.60;50.92;;;;;;;9.59;nan;99180.06;5091246;28;20451;-68
2024/01/21 12:22:39;;;;;;;125.15;50.88;;;;;;;9.50;nan;99180.28;5090933;28;20491;-68
2024/01/21 12:25:09;;;;;;;133.93;49.83;;;;;;;9.56;nan;99172.44;5093337;28;20082;-68
2024/01/21 12:27:45;;;;;;;131.90;50.58;;;;;;;9.35;nan;99170.44;5093079;28;20548;-68
2024/01/21 12:30:15;;;;;;;116.40;50.92;;;;;;;9.40;nan;99183.13;5093790;28;20043;-68
2024/01/21 12:32:45;;;;;;;123.50;48.85;;;;;;;9.43;nan;99177.47;5066859;28;20816;-68
2024/01/21 12:35:20;;;;;;;131.00;49.10;;;;;;;9.40;nan;99181.31;5094620;28;20063;-68
2024/01/21 12:37:50;;;;;;;122.25;48.83;;;;;;;9.36;nan;99187.13;5095168;28;20063;-68
2024/01/21 12:40:19;;;;;;;131.00;49.25;;;;;;;9.76;nan;99178.13;5089943;27;20387;-67